createdAt,value
2018-07-05T00:02:34.419Z,17.19
2018-07-05T00:05:14.139Z,17.09
2018-07-05T00:07:54.005Z,17.01
2018-07-05T00:10:33.825Z,16.96
2018-07-05T00:13:13.438Z,16.97
2018-07-05T00:15:53.161Z,16.95
2018-07-05T00:18:32.882Z,17.00
2018-07-05T00:21:12.692Z,17.00
2018-07-05T00:23:52.487Z,16.90
2018-07-05T00:26:34.588Z,16.79
2018-07-05T00:29:14.082Z,16.70
2018-07-05T00:31:53.862Z,16.66
2018-07-05T00:34:34.203Z,16.61
2018-07-05T00:37:13.905Z,16.63
2018-07-05T00:39:53.589Z,16.66
2018-07-05T00:42:35.009Z,16.71
2018-07-05T00:45:14.798Z,16.75
2018-07-05T00:47:54.519Z,16.83
2018-07-05T00:50:34.766Z,16.95
2018-07-05T00:53:14.485Z,16.88
2018-07-05T00:55:54.410Z,16.86
2018-07-05T00:58:35.260Z,16.86
2018-07-05T01:01:15.736Z,16.79
2018-07-05T01:03:55.559Z,16.72
2018-07-05T01:06:35.421Z,16.55
2018-07-05T01:09:15.133Z,16.44
2018-07-05T01:11:54.837Z,16.37
2018-07-05T01:14:35.413Z,16.36
2018-07-05T01:17:15.302Z,16.42
2018-07-05T01:19:55.073Z,16.39
2018-07-05T01:22:34.931Z,16.32
2018-07-05T01:25:14.741Z,16.24
2018-07-05T01:27:54.498Z,16.16
2018-07-05T01:30:35.669Z,16.12
2018-07-05T01:33:15.232Z,16.08
2018-07-05T01:35:54.929Z,16.12
2018-07-05T01:38:34.585Z,16.12
2018-07-05T01:41:14.275Z,16.06
2018-07-05T01:43:53.949Z,16.04
2018-07-05T01:46:33.850Z,16.03
2018-07-05T01:49:13.609Z,16.07
2018-07-05T01:51:53.411Z,16.14
2018-07-05T01:54:33.822Z,16.15
2018-07-05T01:57:13.455Z,16.11
2018-07-05T01:59:53.185Z,16.03
2018-07-05T02:02:32.872Z,16.01
2018-07-05T02:05:12.438Z,16.00
2018-07-05T02:07:52.162Z,16.11
2018-07-05T02:10:31.901Z,16.08
2018-07-05T02:13:11.594Z,16.11
2018-07-05T02:15:51.346Z,16.16
2018-07-05T02:18:32.093Z,16.11
2018-07-05T02:21:11.826Z,16.08
2018-07-05T02:23:51.618Z,16.13
2018-07-05T02:26:32.072Z,16.09
2018-07-05T02:29:11.722Z,16.17
2018-07-05T02:31:51.339Z,16.12
2018-07-05T02:34:30.906Z,16.02
2018-07-05T02:37:17.253Z,15.99
2018-07-05T02:39:56.999Z,15.92
2018-07-05T02:42:36.856Z,15.91
2018-07-05T02:45:16.771Z,15.87
2018-07-05T02:47:56.319Z,15.85
2018-07-05T02:50:35.833Z,15.84
2018-07-05T02:53:15.511Z,15.85
2018-07-05T02:55:55.198Z,15.85
2018-07-05T02:58:34.705Z,15.86
2018-07-05T03:01:14.445Z,15.87
2018-07-05T03:03:54.145Z,15.85
2018-07-05T03:06:33.786Z,15.81
2018-07-05T03:09:13.461Z,15.79
2018-07-05T03:11:53.245Z,15.78
2018-07-05T03:14:34.325Z,15.84
2018-07-05T03:17:14.149Z,15.82
2018-07-05T03:19:53.926Z,15.77
2018-07-05T03:22:34.316Z,15.78
2018-07-05T03:25:14.001Z,15.83
2018-07-05T03:27:53.801Z,16.02
2018-07-05T03:30:34.449Z,16.21
2018-07-05T03:33:14.293Z,16.08
2018-07-05T03:35:54.078Z,16.12
2018-07-05T03:38:34.405Z,16.09
2018-07-05T03:41:13.995Z,16.06
2018-07-05T03:43:53.508Z,16.32
2018-07-05T03:46:33.826Z,16.37
2018-07-05T03:49:13.540Z,16.46
2018-07-05T03:51:53.342Z,16.60
2018-07-05T03:54:34.366Z,16.72
2018-07-05T03:57:14.117Z,16.82
2018-07-05T03:59:53.811Z,16.97
2018-07-05T04:02:35.308Z,17.18
2018-07-05T04:05:16.424Z,17.40
2018-07-05T04:07:56.078Z,17.50
2018-07-05T04:10:35.697Z,17.73
2018-07-05T04:13:15.242Z,17.82
2018-07-05T04:15:55.026Z,18.04
2018-07-05T04:18:34.740Z,18.23
2018-07-05T04:21:14.485Z,18.35
2018-07-05T04:23:54.202Z,18.39
2018-07-05T04:26:34.854Z,18.50
2018-07-05T04:29:14.486Z,18.63
2018-07-05T04:31:54.166Z,18.72
2018-07-05T04:34:35.027Z,18.82
2018-07-05T04:37:14.674Z,18.81
2018-07-05T04:39:54.458Z,18.85
2018-07-05T04:42:34.810Z,19.00
2018-07-05T04:45:14.653Z,19.06
2018-07-05T04:47:54.362Z,19.08
2018-07-05T04:50:35.132Z,19.19
2018-07-05T04:53:14.838Z,19.26
2018-07-05T04:55:54.666Z,19.34
2018-07-05T04:58:34.757Z,19.57
2018-07-05T05:01:14.529Z,19.69
2018-07-05T05:03:54.031Z,19.72
2018-07-05T05:06:33.849Z,19.80
2018-07-05T05:09:13.409Z,19.80
2018-07-05T05:11:53.581Z,19.80
2018-07-05T05:14:34.287Z,19.88
2018-07-05T05:17:13.985Z,19.96
2018-07-05T05:19:53.746Z,20.00
2018-07-05T05:22:34.194Z,20.05
2018-07-05T05:25:14.102Z,20.18
2018-07-05T05:27:53.850Z,20.32
2018-07-05T05:30:34.370Z,20.60
2018-07-05T05:33:13.923Z,20.61
2018-07-05T05:35:53.510Z,20.62
2018-07-05T05:38:34.264Z,20.63
2018-07-05T05:41:14.027Z,20.76
2018-07-05T05:43:53.723Z,20.93
2018-07-05T05:46:35.019Z,21.06
2018-07-05T05:49:14.827Z,21.40
2018-07-05T05:51:56.971Z,21.50
2018-07-05T05:54:36.694Z,21.60
2018-07-05T05:57:16.511Z,21.73
2018-07-05T05:59:56.897Z,21.86
2018-07-05T06:02:36.670Z,21.71
2018-07-05T06:05:16.443Z,21.76
2018-07-05T06:07:57.055Z,21.68
2018-07-05T06:10:36.731Z,21.53
2018-07-05T06:13:16.548Z,21.63
2018-07-05T06:15:57.086Z,21.96
2018-07-05T06:18:37.124Z,22.09
2018-07-05T06:21:16.960Z,22.15
2018-07-05T06:23:57.217Z,22.21
2018-07-05T06:26:37.158Z,22.27
2018-07-05T06:29:16.841Z,22.50
2018-07-05T06:31:57.205Z,22.51
2018-07-05T06:34:36.945Z,22.76
2018-07-05T06:37:16.754Z,22.90
2018-07-05T06:39:57.424Z,23.03
2018-07-05T06:42:37.141Z,23.16
2018-07-05T06:45:16.804Z,23.26
2018-07-05T06:47:57.267Z,23.33
2018-07-05T06:50:37.013Z,23.39
2018-07-05T06:53:16.626Z,23.29
2018-07-05T06:55:56.333Z,23.32
2018-07-05T06:58:36.256Z,23.17
2018-07-05T07:01:15.934Z,23.09
2018-07-05T07:03:56.264Z,23.08
2018-07-05T07:06:36.019Z,23.41
2018-07-05T07:09:15.554Z,23.54
2018-07-05T07:11:55.161Z,23.53
2018-07-05T07:14:35.257Z,23.65
2018-07-05T07:17:14.974Z,23.69
2018-07-05T07:19:54.547Z,23.83
2018-07-05T07:22:34.836Z,23.85
2018-07-05T07:25:14.292Z,23.99
2018-07-05T07:27:53.890Z,23.93
2018-07-05T07:30:34.363Z,23.86
2018-07-05T07:33:13.964Z,23.87
2018-07-05T07:35:53.626Z,23.93
2018-07-05T07:38:34.385Z,24.10
2018-07-05T07:41:14.146Z,24.25
2018-07-05T07:43:41.429Z,24.72
2018-07-05T07:46:08.745Z,24.84
2018-07-05T07:48:36.017Z,25.17
2018-07-05T07:51:03.924Z,25.35
2018-07-05T07:53:31.206Z,25.60
2018-07-05T07:55:58.488Z,25.89
2018-07-05T07:58:26.298Z,26.02
2018-07-05T08:00:53.644Z,26.22
2018-07-05T08:03:20.975Z,26.15
2018-07-05T08:05:48.246Z,26.38
2018-07-05T08:08:15.579Z,26.34
2018-07-05T08:10:42.870Z,26.49
2018-07-05T08:13:10.161Z,26.63
2018-07-05T08:15:38.165Z,26.79
2018-07-05T08:18:06.139Z,26.93
2018-07-05T08:20:35.200Z,27.26
2018-07-05T08:23:04.182Z,27.21
2018-07-05T08:25:31.461Z,27.39
2018-07-05T08:27:58.741Z,27.79
2018-07-05T08:30:26.628Z,27.94
2018-07-05T08:32:53.909Z,28.28
2018-07-05T08:35:21.205Z,28.63
2018-07-05T08:37:48.519Z,28.46
2018-07-05T08:40:15.810Z,28.12
2018-07-05T08:42:43.125Z,28.06
2018-07-05T08:45:10.468Z,28.27
2018-07-05T08:47:37.748Z,28.35
2018-07-05T08:50:05.031Z,28.28
2018-07-05T08:52:32.329Z,28.18
2018-07-05T08:54:59.626Z,28.05
2018-07-05T08:57:27.427Z,28.18
2018-07-05T08:59:54.702Z,28.03
2018-07-05T09:02:22.009Z,28.00
2018-07-05T09:04:49.304Z,28.21
2018-07-05T09:07:16.601Z,28.46
2018-07-05T09:09:43.886Z,28.47
2018-07-05T09:12:11.187Z,28.71
2018-07-05T09:14:38.733Z,28.82
2018-07-05T09:17:06.477Z,28.89
2018-07-05T09:19:33.762Z,28.93
2018-07-05T09:22:01.061Z,28.99
2018-07-05T09:24:28.342Z,28.94
2018-07-05T09:26:56.274Z,29.13
2018-07-05T09:29:23.590Z,29.22
2018-07-05T09:31:50.876Z,29.21
2018-07-05T09:34:18.169Z,29.08
2018-07-05T09:36:45.462Z,28.97
2018-07-05T09:39:12.747Z,28.66
2018-07-05T09:41:40.034Z,28.58
2018-07-05T09:44:07.360Z,28.29
2018-07-05T09:46:35.558Z,28.19
2018-07-05T09:49:02.834Z,28.00
2018-07-05T09:51:30.126Z,27.88
2018-07-05T09:53:58.098Z,27.82
2018-07-05T09:56:25.385Z,27.84
2018-07-05T09:58:52.669Z,27.78
2018-07-05T10:01:19.958Z,27.75
2018-07-05T10:03:47.305Z,27.77
2018-07-05T10:06:14.546Z,27.99
2018-07-05T10:08:41.846Z,27.95
2018-07-05T10:11:09.189Z,28.23
2018-07-05T10:13:36.727Z,28.21
2018-07-05T10:16:03.824Z,28.35
2018-07-05T10:18:31.125Z,28.53
2018-07-05T10:20:59.297Z,28.51
2018-07-05T10:23:27.925Z,28.51
2018-07-05T10:25:55.205Z,28.51
2018-07-05T10:28:22.506Z,28.66
2018-07-05T10:31:02.246Z,28.62
2018-07-05T10:33:42.373Z,28.66
2018-07-05T10:36:09.650Z,28.45
2018-07-05T10:38:36.945Z,28.58
2018-07-05T10:41:16.762Z,28.55
2018-07-05T10:43:57.601Z,28.78
2018-07-05T10:46:37.294Z,29.00
2018-07-05T10:49:17.669Z,29.22
2018-07-05T10:51:58.193Z,29.15
2018-07-05T10:54:37.795Z,29.35
2018-07-05T10:57:17.538Z,29.59
2018-07-05T10:59:57.832Z,30.11
2018-07-05T11:02:37.649Z,30.24
2018-07-05T11:05:17.421Z,30.14
2018-07-05T11:07:58.154Z,30.01
2018-07-05T11:10:37.878Z,29.84
2018-07-05T11:13:17.701Z,30.25
2018-07-05T11:15:58.281Z,30.63
2018-07-05T11:18:37.929Z,30.49
2018-07-05T11:21:17.553Z,30.81
2018-07-05T11:23:58.269Z,30.68
2018-07-05T11:26:37.957Z,30.33
2018-07-05T11:29:17.654Z,29.85
2018-07-05T11:31:57.442Z,30.12
2018-07-05T11:34:37.077Z,30.23
2018-07-05T11:37:16.853Z,30.32
2018-07-05T11:39:57.562Z,30.46
2018-07-05T11:42:37.160Z,30.65
2018-07-05T11:45:16.785Z,31.05
2018-07-05T11:47:57.345Z,31.15
2018-07-05T11:50:37.096Z,31.33
2018-07-05T11:53:16.731Z,31.48
2018-07-05T11:55:57.333Z,31.68
2018-07-05T11:58:37.005Z,31.85
2018-07-05T12:01:16.846Z,31.88
2018-07-05T12:03:57.981Z,31.75
2018-07-05T12:06:37.665Z,31.80
2018-07-05T12:09:17.430Z,31.78
2018-07-05T12:11:57.534Z,31.62
2018-07-05T12:14:37.438Z,31.70
2018-07-05T12:17:17.219Z,31.65
2018-07-05T12:19:57.441Z,31.80
2018-07-05T12:22:37.278Z,31.62
2018-07-05T12:25:17.642Z,31.96
2018-07-05T12:27:57.469Z,32.12
2018-07-05T12:30:37.176Z,32.18
2018-07-05T12:33:17.477Z,32.54
2018-07-05T12:35:58.473Z,32.80
2018-07-05T12:38:38.242Z,32.76
2018-07-05T12:41:17.801Z,32.86
2018-07-05T12:43:57.479Z,32.85
2018-07-05T12:46:37.280Z,32.93
2018-07-05T12:49:17.659Z,32.89
2018-07-05T12:51:57.999Z,33.19
2018-07-05T12:54:37.700Z,32.70
2018-07-05T12:57:17.577Z,32.77
2018-07-05T12:59:58.173Z,33.00
2018-07-05T13:02:37.869Z,33.36
2018-07-05T13:05:17.474Z,33.67
2018-07-05T13:07:57.870Z,33.54
2018-07-05T13:10:37.634Z,33.36
2018-07-05T13:13:17.505Z,33.98
2018-07-05T13:15:57.565Z,34.07
2018-07-05T13:18:37.254Z,34.03
2018-07-05T13:21:18.183Z,34.24
2018-07-05T13:23:57.854Z,34.23
2018-07-05T13:26:37.546Z,33.89
2018-07-05T13:29:17.054Z,33.45
2018-07-05T13:31:57.002Z,33.14
2018-07-05T13:34:36.643Z,33.05
2018-07-05T13:37:16.746Z,33.24
2018-07-05T13:39:57.353Z,33.65
2018-07-05T13:42:36.857Z,33.83
2018-07-05T13:45:17.081Z,33.26
2018-07-05T13:47:57.496Z,32.87
2018-07-05T13:50:37.230Z,32.54
2018-07-05T13:53:17.478Z,32.76
2018-07-05T13:55:57.562Z,32.33
2018-07-05T13:58:37.186Z,32.82
2018-07-05T14:01:17.885Z,32.64
2018-07-05T14:03:58.385Z,33.09
2018-07-05T14:06:38.893Z,32.42
2018-07-05T14:09:18.785Z,32.06
2018-07-05T14:11:58.387Z,32.33
2018-07-05T14:14:38.146Z,32.74
2018-07-05T14:17:17.956Z,33.11
2018-07-05T14:19:59.077Z,33.48
2018-07-05T14:22:38.843Z,33.65
2018-07-05T14:25:18.621Z,33.43
2018-07-05T14:27:58.281Z,33.73
2018-07-05T14:30:37.977Z,34.13
2018-07-05T14:33:17.786Z,34.03
2018-07-05T14:35:58.360Z,33.90
2018-07-05T14:38:38.148Z,33.78
2018-07-05T14:41:17.786Z,33.40
2018-07-05T14:43:57.645Z,32.75
2018-07-05T14:46:37.341Z,33.40
2018-07-05T14:49:18.502Z,34.23
2018-07-05T14:51:58.185Z,34.39
2018-07-05T14:54:37.751Z,34.96
2018-07-05T14:57:17.453Z,35.36
2018-07-05T14:59:57.599Z,35.21
2018-07-05T15:02:37.262Z,35.82
2018-07-05T15:05:17.945Z,35.49
2018-07-05T15:07:57.594Z,36.26
2018-07-05T15:10:37.289Z,36.04
2018-07-05T15:13:18.455Z,36.38
2018-07-05T15:15:58.073Z,36.35
2018-07-05T15:18:37.741Z,35.74
2018-07-05T15:21:17.310Z,35.86
2018-07-05T15:23:57.529Z,36.20
2018-07-05T15:26:37.238Z,35.93
2018-07-05T15:29:17.910Z,35.85
2018-07-05T15:31:58.677Z,36.30
2018-07-05T15:34:38.365Z,35.61
2018-07-05T15:37:17.933Z,35.14
2018-07-05T15:39:58.669Z,35.04
2018-07-05T15:42:38.444Z,35.39
2018-07-05T15:45:18.089Z,34.63
2018-07-05T15:47:58.897Z,34.70
2018-07-05T15:50:38.573Z,34.09
2018-07-05T15:53:18.463Z,33.13
2018-07-05T15:55:58.640Z,32.94
2018-07-05T15:58:38.479Z,32.88
2018-07-05T16:01:18.269Z,32.04
2018-07-05T16:03:57.961Z,31.78
2018-07-05T16:06:37.737Z,31.61
2018-07-05T16:09:17.466Z,31.46
2018-07-05T16:11:58.481Z,31.12
2018-07-05T16:14:38.159Z,31.12
2018-07-05T16:17:17.945Z,31.25
2018-07-05T16:19:57.625Z,31.02
2018-07-05T16:22:37.309Z,30.88
2018-07-05T16:25:18.252Z,30.46
2018-07-05T16:27:58.143Z,30.23
2018-07-05T16:30:37.835Z,30.16
2018-07-05T16:33:17.435Z,30.27
2018-07-05T16:35:57.649Z,30.35
2018-07-05T16:38:37.397Z,30.26
2018-07-05T16:41:16.885Z,30.13
2018-07-05T16:43:57.657Z,30.08
2018-07-05T16:46:37.317Z,30.00
2018-07-05T16:49:18.603Z,29.99
2018-07-05T16:51:58.245Z,29.85
2018-07-05T16:54:38.000Z,29.84
2018-07-05T16:57:17.766Z,29.67
2018-07-05T16:59:58.721Z,29.50
2018-07-05T17:02:38.428Z,29.48
2018-07-05T17:05:18.073Z,29.52
2018-07-05T17:07:58.472Z,29.40
2018-07-05T17:10:38.153Z,29.31
2018-07-05T17:13:17.975Z,29.36
2018-07-05T17:15:59.209Z,29.36
2018-07-05T17:18:39.065Z,29.19
2018-07-05T17:21:18.745Z,29.06
2018-07-05T17:23:58.490Z,29.00
2018-07-05T17:26:38.240Z,28.91
2018-07-05T17:29:17.920Z,28.92
2018-07-05T17:31:58.604Z,28.84
2018-07-05T17:34:38.447Z,28.80
2018-07-05T17:37:18.011Z,28.74
2018-07-05T17:39:59.281Z,28.60
2018-07-05T17:42:38.949Z,28.57
2018-07-05T17:45:18.802Z,28.41
2018-07-05T17:47:58.565Z,28.30
2018-07-05T17:50:38.408Z,28.23
2018-07-05T17:53:18.066Z,28.22
2018-07-05T17:55:59.073Z,28.13
2018-07-05T17:58:38.720Z,28.05
2018-07-05T18:01:18.495Z,27.92
2018-07-05T18:03:58.125Z,27.87
2018-07-05T18:06:37.881Z,27.82
2018-07-05T18:09:18.028Z,27.77
2018-07-05T18:11:57.702Z,27.75
2018-07-05T18:14:37.461Z,27.69
2018-07-05T18:17:17.162Z,27.61
2018-07-05T18:19:57.731Z,27.60
2018-07-05T18:22:37.519Z,27.47
2018-07-05T18:25:17.434Z,27.37
2018-07-05T18:27:57.854Z,27.33
2018-07-05T18:30:37.602Z,27.23
2018-07-05T18:33:17.297Z,27.24
2018-07-05T18:35:57.934Z,27.16
2018-07-05T18:38:37.511Z,27.05
2018-07-05T18:41:17.370Z,27.01
2018-07-05T18:43:58.401Z,26.98
2018-07-05T18:46:38.197Z,26.86
2018-07-05T18:49:17.998Z,26.84
2018-07-05T18:51:57.809Z,26.72
2018-07-05T18:54:37.626Z,26.70
2018-07-05T18:57:17.323Z,26.51
2018-07-05T18:59:57.821Z,26.47
2018-07-05T19:02:37.642Z,26.41
2018-07-05T19:05:17.581Z,26.31
2018-07-05T19:07:58.198Z,26.16
2018-07-05T19:10:37.954Z,26.06
2018-07-05T19:13:17.888Z,25.98
2018-07-05T19:15:57.852Z,25.84
2018-07-05T19:18:37.766Z,25.67
2018-07-05T19:21:17.798Z,25.53
2018-07-05T19:23:58.974Z,25.37
2018-07-05T19:26:38.803Z,25.17
2018-07-05T19:29:18.708Z,25.13
2018-07-05T19:31:58.806Z,25.10
2018-07-05T19:34:38.766Z,25.02
2018-07-05T19:37:18.581Z,24.95
2018-07-05T19:39:58.534Z,24.88
2018-07-05T19:42:38.576Z,24.74
2018-07-05T19:45:18.387Z,24.72
2018-07-05T19:47:58.349Z,24.68
2018-07-05T19:50:38.284Z,24.60
2018-07-05T19:53:18.282Z,24.49
2018-07-05T19:55:58.796Z,24.40
2018-07-05T19:58:38.671Z,24.38
2018-07-05T20:01:18.751Z,24.21
2018-07-05T20:03:58.640Z,24.18
2018-07-05T20:06:38.596Z,24.18
2018-07-05T20:09:19.432Z,24.14
2018-07-05T20:12:05.076Z,24.05
2018-07-05T20:14:45.033Z,24.00
2018-07-05T20:17:24.971Z,23.94
2018-07-05T20:20:05.048Z,23.90
2018-07-05T20:22:44.912Z,23.81
2018-07-05T20:25:24.827Z,23.79
2018-07-05T20:28:05.326Z,23.69
2018-07-05T20:30:45.316Z,23.66
2018-07-05T20:33:25.212Z,23.60
2018-07-05T20:36:05.139Z,23.62
2018-07-05T20:38:44.959Z,23.48
2018-07-05T20:41:24.655Z,23.37
2018-07-05T20:44:05.424Z,23.20
2018-07-05T20:46:45.374Z,23.20
2018-07-05T20:49:25.206Z,23.17
2018-07-05T20:52:05.534Z,23.15
2018-07-05T20:54:45.392Z,23.07
2018-07-05T20:57:25.376Z,22.98
2018-07-05T21:00:05.217Z,22.96
2018-07-05T21:02:45.062Z,22.82
2018-07-05T21:05:24.755Z,22.82
2018-07-05T21:08:04.898Z,22.74
2018-07-05T21:10:44.496Z,22.69
2018-07-05T21:13:24.404Z,22.52
2018-07-05T21:16:05.346Z,22.43
2018-07-05T21:18:45.181Z,22.34
2018-07-05T21:21:24.915Z,22.35
2018-07-05T21:24:05.329Z,22.24
2018-07-05T21:26:44.926Z,22.22
2018-07-05T21:29:24.589Z,22.20
2018-07-05T21:32:05.018Z,22.15
2018-07-05T21:34:45.009Z,22.13
2018-07-05T21:37:24.658Z,22.15
2018-07-05T21:40:05.669Z,22.06
2018-07-05T21:42:45.513Z,21.84
2018-07-05T21:45:25.169Z,21.59
2018-07-05T21:48:04.837Z,21.59
2018-07-05T21:50:44.357Z,21.53
2018-07-05T21:53:24.125Z,21.29
2018-07-05T21:56:03.855Z,21.23
2018-07-05T21:58:43.606Z,21.03
2018-07-05T22:01:23.353Z,20.90
2018-07-05T22:04:03.969Z,20.80
2018-07-05T22:06:43.605Z,20.71
2018-07-05T22:09:23.477Z,20.57
2018-07-05T22:12:04.338Z,20.57
2018-07-05T22:14:44.081Z,20.63
2018-07-05T22:17:29.287Z,20.55
2018-07-05T22:20:14.377Z,20.42
2018-07-05T22:22:59.577Z,20.32
2018-07-05T22:25:44.787Z,20.21
2018-07-05T22:28:30.081Z,20.08
2018-07-05T22:31:15.250Z,19.98
2018-07-05T22:33:54.978Z,19.97
2018-07-05T22:36:35.483Z,19.85
2018-07-05T22:39:15.142Z,19.71
2018-07-05T22:41:54.929Z,19.60
2018-07-05T22:44:35.100Z,19.55
2018-07-05T22:47:15.165Z,19.50
2018-07-05T22:49:54.685Z,19.43
2018-07-05T22:52:35.762Z,19.33
2018-07-05T22:55:15.345Z,19.23
2018-07-05T22:57:55.021Z,19.19
2018-07-05T23:00:35.205Z,19.09
2018-07-05T23:03:14.798Z,19.02
2018-07-05T23:05:54.457Z,18.96
2018-07-05T23:08:35.336Z,19.03
2018-07-05T23:11:15.820Z,19.00
2018-07-05T23:13:55.578Z,18.91
2018-07-05T23:16:35.261Z,18.97
2018-07-05T23:19:15.201Z,18.95
2018-07-05T23:21:54.874Z,18.90
2018-07-05T23:24:35.070Z,18.84
2018-07-05T23:27:14.629Z,18.73
2018-07-05T23:29:54.272Z,18.64
2018-07-05T23:32:34.246Z,18.52
2018-07-05T23:35:14.106Z,18.44
2018-07-05T23:37:53.777Z,18.42
2018-07-05T23:40:34.314Z,18.36
2018-07-05T23:43:14.035Z,18.31
2018-07-05T23:45:53.697Z,18.24
2018-07-05T23:48:34.373Z,18.15
2018-07-05T23:51:14.107Z,18.14
2018-07-05T23:53:53.776Z,18.10
2018-07-05T23:56:35.238Z,18.20
2018-07-05T23:59:15.023Z,18.08
